createdAt,value
2023-04-05T00:00:25.941Z,94151.66
2023-04-05T00:02:29.839Z,94160.66
2023-04-05T00:04:34.753Z,94161.09
2023-04-05T00:06:37.803Z,94153.34
2023-04-05T00:08:39.271Z,94151.25
2023-04-05T00:10:41.089Z,94159.44
2023-04-05T00:12:42.765Z,94149.03
2023-04-05T00:14:44.339Z,94147.16
2023-04-05T00:16:45.913Z,94155.34
2023-04-05T00:18:51.673Z,94152.56
2023-04-05T00:20:53.621Z,94139.31
2023-04-05T00:22:55.131Z,94147.41
2023-04-05T00:24:56.624Z,94157.94
2023-04-05T00:26:58.435Z,94146.59
2023-04-05T00:29:00.039Z,94146.81
2023-04-05T00:31:01.571Z,94156.31
2023-04-05T00:33:03.153Z,94137.06
2023-04-05T00:35:04.959Z,94152.34
2023-04-05T00:37:06.483Z,94149.16
2023-04-05T00:39:07.973Z,94148.72
2023-04-05T00:41:10.817Z,94135.44
2023-04-05T00:43:12.299Z,94146.59
2023-04-05T00:45:14.093Z,94156.31
2023-04-05T00:47:15.740Z,94150.94
2023-04-05T00:49:17.210Z,94154.44
2023-04-05T00:51:20.272Z,94155.84
2023-04-05T00:53:21.841Z,94148.00
2023-04-05T00:55:23.295Z,94153.88
2023-04-05T00:57:26.427Z,94170.97
2023-04-05T00:59:31.338Z,94156.44
2023-04-05T01:01:32.975Z,94165.81
2023-04-05T01:03:34.939Z,94155.75
2023-04-05T01:05:37.108Z,94154.69
2023-04-05T01:07:40.923Z,94156.31
2023-04-05T01:09:45.610Z,94161.84
2023-04-05T01:11:47.107Z,94158.53
2023-04-05T01:13:49.507Z,94165.09
2023-04-05T01:15:51.167Z,94167.34
2023-04-05T01:17:54.441Z,94166.88
2023-04-05T01:20:00.569Z,94170.97
2023-04-05T01:22:13.823Z,94168.03
2023-04-05T01:24:18.481Z,94165.16
2023-04-05T01:26:35.247Z,94170.06
2023-04-05T01:28:36.743Z,94173.81
2023-04-05T01:30:39.834Z,94169.00
2023-04-05T01:32:41.649Z,94176.84
2023-04-05T01:34:48.624Z,94170.16
2023-04-05T01:36:50.832Z,94174.28
2023-04-05T01:38:52.340Z,94167.00
2023-04-05T01:40:53.998Z,94167.22
2023-04-05T01:42:55.677Z,94175.59
2023-04-05T01:44:57.400Z,94174.84
2023-04-05T01:46:58.929Z,94165.34
2023-04-05T01:49:00.438Z,94175.81
2023-04-05T01:51:01.964Z,94169.81
2023-04-05T01:53:03.479Z,94172.50
2023-04-05T01:55:05.107Z,94173.56
2023-04-05T01:57:06.583Z,94161.25
2023-04-05T01:59:08.138Z,94163.69
2023-04-05T02:01:09.724Z,94165.13
2023-04-05T02:03:11.266Z,94163.94
2023-04-05T02:05:12.817Z,94160.53
2023-04-05T02:07:14.352Z,94169.22
2023-04-05T02:09:16.191Z,94167.25
2023-04-05T02:11:17.773Z,94168.78
2023-04-05T02:13:19.225Z,94171.47
2023-04-05T02:15:20.766Z,94168.19
2023-04-05T02:17:22.284Z,94162.78
2023-04-05T02:19:23.833Z,94165.00
2023-04-05T02:21:26.223Z,94173.22
2023-04-05T02:23:28.129Z,94167.00
2023-04-05T02:25:29.638Z,94169.50
2023-04-05T02:27:32.157Z,94167.13
2023-04-05T02:29:34.933Z,94171.25
2023-04-05T02:31:36.457Z,94177.09
2023-04-05T02:33:38.455Z,94170.63
2023-04-05T02:35:40.160Z,94168.28
2023-04-05T02:37:41.724Z,94172.84
2023-04-05T02:39:43.208Z,94175.00
2023-04-05T02:41:44.711Z,94169.34
2023-04-05T02:43:46.552Z,94154.41
2023-04-05T02:45:48.176Z,94167.81
2023-04-05T02:47:49.891Z,94165.09
2023-04-05T02:49:51.425Z,94169.81
2023-04-05T02:51:52.964Z,94165.50
2023-04-05T02:53:54.461Z,94162.31
2023-04-05T02:55:56.982Z,94165.72
2023-04-05T02:58:04.510Z,94159.97
2023-04-05T03:00:08.379Z,94162.78
2023-04-05T03:02:10.378Z,94153.50
2023-04-05T03:04:14.605Z,94160.56
2023-04-05T03:06:16.033Z,94161.00
2023-04-05T03:08:23.702Z,94166.78
2023-04-05T03:10:29.065Z,94165.47
2023-04-05T03:12:30.797Z,94155.59
2023-04-05T03:14:34.534Z,94157.00
2023-04-05T03:16:37.312Z,94163.13
2023-04-05T03:18:40.338Z,94161.13
2023-04-05T03:20:41.810Z,94162.31
2023-04-05T03:22:43.265Z,94155.28
2023-04-05T03:24:44.823Z,94160.44
2023-04-05T03:26:46.667Z,94163.38
2023-04-05T03:28:48.463Z,94157.75
2023-04-05T03:30:50.444Z,94153.84
2023-04-05T03:32:51.968Z,94163.25
2023-04-05T03:34:53.487Z,94163.69
2023-04-05T03:36:55.424Z,94161.25
2023-04-05T03:38:57.309Z,94160.56
2023-04-05T03:40:58.825Z,94163.25
2023-04-05T03:43:00.439Z,94164.41
2023-04-05T03:45:01.906Z,94167.69
2023-04-05T03:47:03.464Z,94169.09
2023-04-05T03:49:05.190Z,94165.44
2023-04-05T03:51:07.006Z,94174.06
2023-04-05T03:53:08.571Z,94167.94
2023-04-05T03:55:10.211Z,94175.09
2023-04-05T03:57:11.680Z,94173.94
2023-04-05T03:59:13.297Z,94184.81
2023-04-05T04:01:15.565Z,94182.03
2023-04-05T04:03:17.088Z,94173.47
2023-04-05T04:05:18.835Z,94187.88
2023-04-05T04:07:20.620Z,94183.41
2023-04-05T04:09:23.033Z,94191.41
2023-04-05T04:11:24.635Z,94196.22
2023-04-05T04:13:26.331Z,94189.28
2023-04-05T04:15:27.794Z,94194.47
2023-04-05T04:17:33.379Z,94186.13
2023-04-05T04:19:34.844Z,94188.97
2023-04-05T04:21:39.719Z,94196.66
2023-04-05T04:23:46.100Z,94190.16
2023-04-05T04:25:50.610Z,94194.81
2023-04-05T04:27:52.847Z,94200.53
2023-04-05T04:30:01.569Z,94197.25
2023-04-05T04:32:07.086Z,94198.31
2023-04-05T04:34:08.591Z,94194.34
2023-04-05T04:36:13.845Z,94194.69
2023-04-05T04:38:19.008Z,94201.03
2023-04-05T04:40:21.466Z,94196.56
2023-04-05T04:42:23.925Z,94200.81
2023-04-05T04:44:31.263Z,94199.97
2023-04-05T04:46:34.946Z,94193.06
2023-04-05T04:48:38.065Z,94204.78
2023-04-05T04:50:39.571Z,94203.16
2023-04-05T04:52:41.068Z,94201.75
2023-04-05T04:54:43.820Z,94209.25
2023-04-05T04:56:45.372Z,94210.56
2023-04-05T04:58:46.951Z,94201.97
2023-04-05T05:00:48.517Z,94206.16
2023-04-05T05:02:50.918Z,94212.06
2023-04-05T05:04:52.516Z,94206.28
2023-04-05T05:06:54.172Z,94204.91
2023-04-05T05:08:56.431Z,94210.09
2023-04-05T05:10:57.933Z,94200.09
2023-04-05T05:12:59.467Z,94211.72
2023-04-05T05:15:00.933Z,94216.06
2023-04-05T05:17:02.592Z,94211.59
2023-04-05T05:19:04.105Z,94222.28
2023-04-05T05:21:05.639Z,94225.91
2023-04-05T05:23:07.239Z,94227.91
2023-04-05T05:25:10.056Z,94208.44
2023-04-05T05:27:11.519Z,94212.91
2023-04-05T05:29:12.996Z,94221.22
2023-04-05T05:31:14.615Z,94221.44
2023-04-05T05:33:16.153Z,94211.13
2023-04-05T05:35:17.801Z,94211.47
2023-04-05T05:37:19.475Z,94214.63
2023-04-05T05:39:21.276Z,94217.44
2023-04-05T05:41:22.836Z,94206.31
2023-04-05T05:43:24.338Z,94204.75
2023-04-05T05:45:25.894Z,94212.16
2023-04-05T05:47:27.371Z,94205.91
2023-04-05T05:49:28.978Z,94201.41
2023-04-05T05:51:32.394Z,94206.56
2023-04-05T05:53:33.855Z,94202.88
2023-04-05T05:55:35.498Z,94208.13
2023-04-05T05:57:38.772Z,94207.75
2023-04-05T05:59:41.500Z,94212.56
2023-04-05T06:01:46.521Z,94200.38
2023-04-05T06:03:48.087Z,94209.41
2023-04-05T06:05:53.209Z,94201.34
2023-04-05T06:07:54.824Z,94206.31
2023-04-05T06:09:56.712Z,94209.97
2023-04-05T06:11:58.564Z,94224.44
2023-04-05T06:14:00.099Z,94214.22
2023-04-05T06:16:01.864Z,94212.22
2023-04-05T06:18:03.585Z,94214.69
2023-04-05T06:20:05.472Z,94218.78
2023-04-05T06:22:07.007Z,94214.66
2023-04-05T06:24:08.561Z,94219.50
2023-04-05T06:26:15.632Z,94220.22
2023-04-05T06:28:17.209Z,94220.16
2023-04-05T06:30:18.925Z,94218.97
2023-04-05T06:32:20.784Z,94219.22
2023-04-05T06:34:22.293Z,94225.59
2023-04-05T06:36:25.033Z,94227.84
2023-04-05T06:38:28.544Z,94225.34
2023-04-05T06:40:30.072Z,94229.41
2023-04-05T06:42:31.535Z,94232.78
2023-04-05T06:44:33.117Z,94241.28
2023-04-05T06:46:34.648Z,94236.00
2023-04-05T06:48:36.585Z,94241.22
2023-04-05T06:50:38.165Z,94253.91
2023-04-05T06:52:39.742Z,94245.22
2023-04-05T06:54:41.267Z,94247.19
2023-04-05T06:56:42.814Z,94249.16
2023-04-05T06:58:44.300Z,94248.44
2023-04-05T07:00:46.439Z,94248.94
2023-04-05T07:02:48.211Z,94257.25
2023-04-05T07:04:49.790Z,94263.81
2023-04-05T07:06:51.304Z,94267.81
2023-04-05T07:08:53.044Z,94266.72
2023-04-05T07:10:54.685Z,94266.72
2023-04-05T07:12:56.393Z,94274.34
2023-04-05T07:14:59.159Z,94273.72
2023-04-05T07:17:00.820Z,94275.56
2023-04-05T07:19:02.395Z,94269.84
2023-04-05T07:21:04.174Z,94270.38
2023-04-05T07:23:06.138Z,94277.75
2023-04-05T07:25:09.632Z,94285.69
2023-04-05T07:27:11.165Z,94291.56
2023-04-05T07:29:13.144Z,94279.50
2023-04-05T07:31:14.708Z,94275.81
2023-04-05T07:33:16.536Z,94288.38
2023-04-05T07:35:18.174Z,94276.53
2023-04-05T07:37:19.646Z,94271.97
2023-04-05T07:39:21.414Z,94278.44
2023-04-05T07:41:23.758Z,94280.97
2023-04-05T07:43:25.957Z,94286.06
2023-04-05T07:45:27.595Z,94283.97
2023-04-05T07:47:29.248Z,94288.66
2023-04-05T07:49:30.843Z,94293.69
2023-04-05T07:51:36.198Z,94290.84
2023-04-05T07:53:37.831Z,94299.19
2023-04-05T07:55:39.825Z,94298.00
2023-04-05T07:57:41.808Z,94303.00
2023-04-05T07:59:43.494Z,94310.06
2023-04-05T08:01:45.408Z,94314.69
2023-04-05T08:03:47.327Z,94303.66
2023-04-05T08:05:48.894Z,94314.00
2023-04-05T08:07:50.411Z,94304.34
2023-04-05T08:09:51.958Z,94319.22
2023-04-05T08:11:53.428Z,94314.53
2023-04-05T08:13:54.948Z,94314.81
2023-04-05T08:15:57.024Z,94320.56
2023-04-05T08:17:58.780Z,94315.66
2023-04-05T08:20:00.531Z,94329.78
2023-04-05T08:22:02.028Z,94322.69
2023-04-05T08:24:03.664Z,94319.16
2023-04-05T08:26:05.700Z,94316.44
2023-04-05T08:28:07.817Z,94322.31
2023-04-05T08:30:09.470Z,94323.88
2023-04-05T08:32:11.363Z,94315.56
2023-04-05T08:34:12.979Z,94331.81
2023-04-05T08:36:14.511Z,94325.59
2023-04-05T08:38:16.173Z,94320.41
2023-04-05T08:40:17.762Z,94331.44
2023-04-05T08:42:24.228Z,94328.13
2023-04-05T08:44:25.978Z,94328.34
2023-04-05T08:46:27.602Z,94333.84
2023-04-05T08:48:31.294Z,94329.19
2023-04-05T08:50:32.764Z,94336.59
2023-04-05T08:52:34.712Z,94335.09
2023-04-05T08:54:36.188Z,94336.66
2023-04-05T08:56:37.691Z,94335.41
2023-04-05T08:58:39.224Z,94341.28
2023-04-05T09:00:41.437Z,94343.38
2023-04-05T09:02:43.766Z,94340.91
2023-04-05T09:04:45.549Z,94344.97
2023-04-05T09:06:47.598Z,94348.69
2023-04-05T09:08:49.078Z,94371.06
2023-04-05T09:10:51.721Z,94358.81
2023-04-05T09:12:53.362Z,94359.03
2023-04-05T09:14:54.934Z,94356.81
2023-04-05T09:16:56.480Z,94363.44
2023-04-05T09:18:57.958Z,94363.91
2023-04-05T09:21:04.145Z,94371.88
2023-04-05T09:23:05.774Z,94376.44
2023-04-05T09:25:07.404Z,94365.75
2023-04-05T09:27:12.625Z,94372.66
2023-04-05T09:29:40.728Z,94388.00
2023-04-05T09:31:42.281Z,94373.44
2023-04-05T09:33:43.980Z,94361.69
2023-04-05T09:35:45.547Z,94353.50
2023-04-05T09:37:53.635Z,94368.06
2023-04-05T09:40:02.578Z,94355.66
2023-04-05T09:42:05.103Z,94363.31
2023-04-05T09:44:06.561Z,94362.78
2023-04-05T09:46:16.503Z,94371.25
2023-04-05T09:48:18.136Z,94358.13
2023-04-05T09:50:20.247Z,94352.09
2023-04-05T09:52:23.024Z,94361.22
2023-04-05T09:54:24.530Z,94346.59
2023-04-05T09:56:26.556Z,94355.09
2023-04-05T09:58:28.066Z,94357.16
2023-04-05T10:00:30.307Z,94349.41
2023-04-05T10:02:39.450Z,94374.91
2023-04-05T10:04:45.504Z,94350.97
2023-04-05T10:06:47.417Z,94377.44
2023-04-05T10:08:52.086Z,94365.78
2023-04-05T10:10:54.836Z,94346.16
2023-04-05T10:13:04.192Z,94381.56
2023-04-05T10:15:06.741Z,94372.41
2023-04-05T10:17:12.808Z,94352.84
2023-04-05T10:19:16.884Z,94361.53
2023-04-05T10:21:22.717Z,94359.31
2023-04-05T10:23:24.186Z,94357.56
2023-04-05T10:25:34.814Z,94376.69
2023-04-05T10:27:40.264Z,94367.22
2023-04-05T10:29:48.343Z,94354.63
2023-04-05T10:31:51.708Z,94357.91
2023-04-05T10:34:01.151Z,94366.13
2023-04-05T10:36:08.508Z,94365.22
2023-04-05T10:38:10.252Z,94353.78
2023-04-05T10:40:11.911Z,94349.41
2023-04-05T10:42:27.124Z,94363.66
2023-04-05T10:44:30.596Z,94353.47
2023-04-05T10:46:32.261Z,94347.97
2023-04-05T10:48:36.841Z,94361.09
2023-04-05T10:50:38.380Z,94360.72
2023-04-05T10:52:40.758Z,94372.94
2023-04-05T10:54:42.384Z,94349.59
2023-04-05T10:56:44.080Z,94358.22
2023-04-05T10:58:45.757Z,94353.69
2023-04-05T11:00:47.860Z,94363.31
2023-04-05T11:02:54.033Z,94361.44
2023-04-05T11:04:56.885Z,94371.06
2023-04-05T11:07:17.880Z,94358.16
2023-04-05T11:09:22.985Z,94364.03
2023-04-05T11:11:25.202Z,94370.88
2023-04-05T11:13:48.294Z,94374.81
2023-04-05T11:16:06.121Z,94361.22
2023-04-05T11:18:11.870Z,94359.06
2023-04-05T11:20:13.548Z,94370.38
2023-04-05T11:22:25.862Z,94357.59
2023-04-05T11:24:27.370Z,94360.63
2023-04-05T11:26:32.311Z,94381.84
2023-04-05T11:28:39.661Z,94372.66
2023-04-05T11:30:56.942Z,94372.13
2023-04-05T11:32:58.940Z,94379.69
2023-04-05T11:35:01.628Z,94372.78
2023-04-05T11:37:03.107Z,94370.44
2023-04-05T11:39:21.170Z,94364.38
2023-04-05T11:41:22.759Z,94364.22
2023-04-05T11:43:24.216Z,94367.88
2023-04-05T11:45:30.009Z,94359.31
2023-04-05T11:47:33.372Z,94363.66
2023-04-05T11:49:35.488Z,94359.34
2023-04-05T11:51:36.965Z,94351.34
2023-04-05T11:53:38.776Z,94364.97
2023-04-05T11:55:41.058Z,94354.97
2023-04-05T11:57:43.287Z,94358.69
2023-04-05T11:59:44.991Z,94358.56
2023-04-05T12:01:46.475Z,94358.56
2023-04-05T12:03:50.971Z,94354.03
2023-04-05T12:05:53.114Z,94358.13
2023-04-05T12:07:54.667Z,94354.25
2023-04-05T12:09:59.020Z,94355.00
2023-04-05T12:12:00.584Z,94363.56
2023-04-05T12:14:04.975Z,94354.03
2023-04-05T12:16:07.336Z,94355.22
2023-04-05T12:18:15.668Z,94373.19
2023-04-05T12:20:19.430Z,94356.38
2023-04-05T12:22:20.930Z,94373.66
2023-04-05T12:24:22.402Z,94357.69
2023-04-05T12:26:23.936Z,94356.94
2023-04-05T12:28:25.660Z,94355.13
2023-04-05T12:30:27.897Z,94358.97
2023-04-05T12:32:35.582Z,94358.41
2023-04-05T12:34:37.221Z,94359.22
2023-04-05T12:36:41.652Z,94360.88
2023-04-05T12:38:43.177Z,94353.13
2023-04-05T12:40:45.690Z,94370.25
2023-04-05T12:42:47.205Z,94363.22
2023-04-05T12:45:02.070Z,94359.91
2023-04-05T12:47:05.332Z,94370.00
2023-04-05T12:49:07.050Z,94364.72
2023-04-05T12:51:16.891Z,94370.03
2023-04-05T12:53:28.657Z,94369.59
2023-04-05T12:55:30.271Z,94371.84
2023-04-05T12:57:32.020Z,94363.69
2023-04-05T12:59:33.511Z,94358.13
2023-04-05T13:01:35.033Z,94360.47
2023-04-05T13:03:36.642Z,94382.69
2023-04-05T13:05:39.089Z,94369.63
2023-04-05T13:07:41.023Z,94362.34
2023-04-05T13:09:42.483Z,94370.38
2023-04-05T13:11:43.992Z,94381.13
2023-04-05T13:13:45.478Z,94368.94
2023-04-05T13:15:47.772Z,94368.38
2023-04-05T13:17:50.806Z,94365.22
2023-04-05T13:19:52.484Z,94377.19
2023-04-05T13:21:54.022Z,94362.28
2023-04-05T13:23:55.464Z,94373.22
2023-04-05T13:25:56.965Z,94367.91
2023-04-05T13:27:58.881Z,94362.16
2023-04-05T13:30:00.390Z,94370.38
2023-04-05T13:32:01.973Z,94366.38
2023-04-05T13:34:03.718Z,94369.28
2023-04-05T13:36:05.550Z,94367.28
2023-04-05T13:38:07.151Z,94362.84
2023-04-05T13:40:08.945Z,94362.34
2023-04-05T13:42:10.783Z,94387.47
2023-04-05T13:44:12.305Z,94382.47
2023-04-05T13:46:13.806Z,94369.91
2023-04-05T13:48:15.493Z,94374.03
2023-04-05T13:50:17.209Z,94365.78
2023-04-05T13:52:18.840Z,94375.19
2023-04-05T13:54:20.524Z,94368.13
2023-04-05T13:56:22.203Z,94373.66
2023-04-05T13:58:23.765Z,94364.41
2023-04-05T14:00:25.630Z,94372.69
2023-04-05T14:02:27.404Z,94401.88
2023-04-05T14:04:29.043Z,94370.16
2023-04-05T14:06:30.578Z,94379.44
2023-04-05T14:08:32.330Z,94372.50
2023-04-05T14:10:33.793Z,94383.31
2023-04-05T14:12:35.431Z,94385.66
2023-04-05T14:14:37.202Z,94381.06
2023-04-05T14:16:38.849Z,94384.44
2023-04-05T14:18:40.520Z,94397.16
2023-04-05T14:20:42.351Z,94392.47
2023-04-05T14:22:44.069Z,94405.38
2023-04-05T14:24:45.790Z,94395.13
2023-04-05T14:26:49.911Z,94413.63
2023-04-05T14:28:51.695Z,94407.94
2023-04-05T14:30:53.418Z,94408.41
2023-04-05T14:32:54.946Z,94400.41
2023-04-05T14:34:56.578Z,94409.47
2023-04-05T14:37:00.318Z,94410.41
2023-04-05T14:39:01.783Z,94412.63
2023-04-05T14:41:04.358Z,94404.41
2023-04-05T14:43:06.301Z,94396.75
2023-04-05T14:45:08.194Z,94400.72
2023-04-05T14:47:09.882Z,94400.50
2023-04-05T14:49:11.432Z,94393.97
2023-04-05T14:51:13.250Z,94410.78
2023-04-05T14:53:14.836Z,94406.34
2023-04-05T14:55:16.709Z,94401.28
2023-04-05T14:57:18.273Z,94407.03
2023-04-05T14:59:19.915Z,94406.84
2023-04-05T15:01:21.445Z,94424.03
2023-04-05T15:03:23.048Z,94415.19
2023-04-05T15:05:24.662Z,94416.16
2023-04-05T15:07:26.616Z,94424.72
2023-04-05T15:09:28.238Z,94416.75
2023-04-05T15:11:29.828Z,94420.38
2023-04-05T15:13:31.614Z,94423.81
2023-04-05T15:15:33.306Z,94441.88
2023-04-05T15:17:35.009Z,94415.03
2023-04-05T15:19:36.541Z,94423.63
2023-04-05T15:21:41.445Z,94425.47
2023-04-05T15:23:42.985Z,94433.19
2023-04-05T15:25:44.645Z,94424.69
2023-04-05T15:27:46.376Z,94428.94
2023-04-05T15:29:47.999Z,94443.97
2023-04-05T15:31:49.544Z,94436.31
2023-04-05T15:33:51.699Z,94429.50
2023-04-05T15:35:53.231Z,94434.72
2023-04-05T15:37:54.803Z,94443.38
2023-04-05T15:39:56.369Z,94443.53
2023-04-05T15:41:58.016Z,94434.13
2023-04-05T15:43:59.714Z,94441.69
2023-04-05T15:46:01.455Z,94447.69
2023-04-05T15:48:03.062Z,94434.59
2023-04-05T15:50:05.036Z,94431.16
2023-04-05T15:52:06.697Z,94454.44
2023-04-05T15:54:08.231Z,94436.38
2023-04-05T15:56:09.897Z,94442.72
2023-04-05T15:58:11.484Z,94445.81
2023-04-05T16:00:13.305Z,94434.22
2023-04-05T16:02:14.856Z,94450.56
2023-04-05T16:04:16.493Z,94445.59
2023-04-05T16:06:18.066Z,94443.19
2023-04-05T16:08:19.647Z,94455.84
2023-04-05T16:10:21.313Z,94454.59
2023-04-05T16:12:22.873Z,94446.16
2023-04-05T16:14:24.410Z,94441.69
2023-04-05T16:16:38.182Z,94456.75
2023-04-05T16:18:47.325Z,94439.69
2023-04-05T16:20:52.205Z,94441.81
2023-04-05T16:22:53.728Z,94446.13
2023-04-05T16:24:55.475Z,94438.09
2023-04-05T16:26:56.992Z,94456.69
2023-04-05T16:28:58.997Z,94464.34
2023-04-05T16:31:01.102Z,94450.72
2023-04-05T16:33:02.713Z,94449.44
2023-04-05T16:35:04.431Z,94442.25
2023-04-05T16:37:06.130Z,94451.84
2023-04-05T16:39:07.873Z,94454.22
2023-04-05T16:41:09.403Z,94454.75
2023-04-05T16:43:11.145Z,94447.22
2023-04-05T16:45:12.743Z,94446.00
2023-04-05T16:47:14.228Z,94454.13
2023-04-05T16:49:15.917Z,94447.22
2023-04-05T16:51:17.451Z,94442.28
2023-04-05T16:53:18.988Z,94440.66
2023-04-05T16:55:20.471Z,94444.22
2023-04-05T16:57:22.037Z,94439.28
2023-04-05T16:59:23.697Z,94442.28
2023-04-05T17:01:25.392Z,94441.66
2023-04-05T17:03:27.438Z,94443.41
2023-04-05T17:05:29.487Z,94442.03
2023-04-05T17:07:31.172Z,94451.63
2023-04-05T17:09:33.282Z,94451.41
2023-04-05T17:11:34.810Z,94453.81
2023-04-05T17:13:36.379Z,94452.84
2023-04-05T17:15:38.462Z,94454.22
2023-04-05T17:17:40.386Z,94457.06
2023-04-05T17:19:42.327Z,94450.31
2023-04-05T17:21:48.665Z,94459.91
2023-04-05T17:23:50.241Z,94460.28
2023-04-05T17:25:51.816Z,94456.19
2023-04-05T17:27:53.335Z,94474.75
2023-04-05T17:29:54.897Z,94462.53
2023-04-05T17:31:57.003Z,94454.78
2023-04-05T17:33:58.481Z,94466.50
2023-04-05T17:36:00.124Z,94458.22
2023-04-05T17:38:03.434Z,94458.81
2023-04-05T17:40:05.224Z,94454.50
2023-04-05T17:42:06.798Z,94461.53
2023-04-05T17:44:08.373Z,94457.31
2023-04-05T17:46:13.781Z,94466.63
2023-04-05T17:48:15.498Z,94462.75
2023-04-05T17:50:17.108Z,94462.53
2023-04-05T17:52:18.573Z,94467.38
2023-04-05T17:54:20.116Z,94468.28
2023-04-05T17:56:22.314Z,94469.25
2023-04-05T17:58:23.956Z,94465.56
2023-04-05T18:00:25.625Z,94464.50
2023-04-05T18:02:28.116Z,94478.81
2023-04-05T18:04:29.798Z,94475.28
2023-04-05T18:06:31.524Z,94472.75
2023-04-05T18:08:33.150Z,94473.78
2023-04-05T18:10:34.629Z,94476.97
2023-04-05T18:12:36.698Z,94476.41
2023-04-05T18:14:38.214Z,94477.25
2023-04-05T18:16:39.746Z,94474.53
2023-04-05T18:18:41.218Z,94478.28
2023-04-05T18:20:42.844Z,94481.13
2023-04-05T18:22:44.485Z,94474.88
2023-04-05T18:24:46.384Z,94475.31
2023-04-05T18:26:48.270Z,94480.94
2023-04-05T18:28:50.545Z,94482.22
2023-04-05T18:30:52.978Z,94486.06
2023-04-05T18:32:54.703Z,94492.03
2023-04-05T18:34:56.383Z,94490.31
2023-04-05T18:36:57.985Z,94486.44
2023-04-05T18:39:00.642Z,94488.91
2023-04-05T18:41:07.172Z,94489.97
2023-04-05T18:43:08.927Z,94492.94
2023-04-05T18:45:10.744Z,94488.47
2023-04-05T18:47:12.237Z,94490.38
2023-04-05T18:49:15.879Z,94497.47
2023-04-05T18:51:17.474Z,94494.47
2023-04-05T18:53:18.966Z,94503.47
2023-04-05T18:55:20.556Z,94498.91
2023-04-05T18:57:22.179Z,94494.78
2023-04-05T18:59:23.795Z,94496.94
2023-04-05T19:01:25.470Z,94503.97
2023-04-05T19:03:27.285Z,94498.44
2023-04-05T19:05:28.978Z,94506.34
2023-04-05T19:07:30.599Z,94497.06
2023-04-05T19:09:32.584Z,94513.31
2023-04-05T19:11:34.139Z,94499.31
2023-04-05T19:13:35.693Z,94502.88
2023-04-05T19:15:37.923Z,94500.25
2023-04-05T19:17:39.572Z,94497.34
2023-04-05T19:19:42.454Z,94496.78
2023-04-05T19:21:44.054Z,94494.47
2023-04-05T19:23:45.712Z,94501.97
2023-04-05T19:25:47.255Z,94492.34
2023-04-05T19:27:48.974Z,94497.50
2023-04-05T19:29:50.519Z,94496.19
2023-04-05T19:31:52.194Z,94489.84
2023-04-05T19:33:53.777Z,94487.41
2023-04-05T19:35:55.504Z,94489.13
2023-04-05T19:37:57.608Z,94489.69
2023-04-05T19:39:59.094Z,94486.72
2023-04-05T19:42:00.889Z,94488.47
2023-04-05T19:44:02.607Z,94493.38
2023-04-05T19:46:04.210Z,94484.34
2023-04-05T19:48:07.951Z,94489.09
2023-04-05T19:50:11.578Z,94483.06
2023-04-05T19:52:13.228Z,94477.22
2023-04-05T19:54:15.061Z,94478.50
2023-04-05T19:56:28.689Z,94477.19
2023-04-05T19:58:30.608Z,94475.22
2023-04-05T20:00:43.881Z,94476.28
2023-04-05T20:02:45.503Z,94478.34
2023-04-05T20:04:48.663Z,94472.63
2023-04-05T20:06:54.043Z,94472.66
2023-04-05T20:08:59.736Z,94476.19
2023-04-05T20:11:01.315Z,94465.47
2023-04-05T20:13:02.879Z,94468.38
2023-04-05T20:15:04.855Z,94462.16
2023-04-05T20:17:06.548Z,94473.16
2023-04-05T20:19:08.888Z,94475.25
2023-04-05T20:21:11.340Z,94476.06
2023-04-05T20:23:14.130Z,94473.56
2023-04-05T20:25:34.341Z,94474.53
2023-04-05T20:27:35.844Z,94478.81
2023-04-05T20:29:37.356Z,94478.53
2023-04-05T20:31:40.154Z,94481.00
2023-04-05T20:33:44.915Z,94481.75
2023-04-05T20:35:46.454Z,94485.47
2023-04-05T20:37:49.771Z,94495.88
2023-04-05T20:39:51.411Z,94484.53
2023-04-05T20:41:52.962Z,94488.41
2023-04-05T20:43:56.284Z,94491.41
2023-04-05T20:45:58.265Z,94480.84
2023-04-05T20:48:01.021Z,94477.63
2023-04-05T20:50:02.519Z,94482.56
2023-04-05T20:52:08.875Z,94484.41
2023-04-05T20:54:10.777Z,94484.50
2023-04-05T20:56:12.596Z,94489.13
2023-04-05T20:58:14.454Z,94481.13
2023-04-05T21:00:16.550Z,94477.53
2023-04-05T21:02:18.052Z,94487.22
2023-04-05T21:04:19.563Z,94486.78
2023-04-05T21:06:21.156Z,94481.25
2023-04-05T21:08:22.841Z,94488.06
2023-04-05T21:10:24.479Z,94485.69
2023-04-05T21:12:26.037Z,94481.06
2023-04-05T21:14:36.726Z,94481.72
2023-04-05T21:16:38.225Z,94481.72
2023-04-05T21:18:40.040Z,94485.34
2023-04-05T21:20:41.628Z,94475.41
2023-04-05T21:22:45.135Z,94492.22
2023-04-05T21:24:46.562Z,94485.06
2023-04-05T21:26:56.206Z,94477.72
2023-04-05T21:28:57.735Z,94481.13
2023-04-05T21:30:59.214Z,94481.66
2023-04-05T21:33:00.738Z,94483.50
2023-04-05T21:35:02.383Z,94480.03
2023-04-05T21:37:03.912Z,94483.09
2023-04-05T21:39:05.516Z,94494.53
2023-04-05T21:41:07.063Z,94483.81
2023-04-05T21:43:08.619Z,94490.41
2023-04-05T21:45:10.447Z,94500.47
2023-04-05T21:47:12.644Z,94496.94
2023-04-05T21:49:14.168Z,94489.72
2023-04-05T21:51:15.714Z,94487.84
2023-04-05T21:53:17.248Z,94484.69
2023-04-05T21:55:18.906Z,94481.38
2023-04-05T21:57:20.502Z,94485.84
2023-04-05T21:59:22.178Z,94482.34
2023-04-05T22:01:23.803Z,94477.66
2023-04-05T22:03:25.560Z,94482.88
2023-04-05T22:05:36.982Z,94485.47
2023-04-05T22:07:39.937Z,94480.44
2023-04-05T22:09:42.039Z,94479.09
2023-04-05T22:11:43.676Z,94468.94
2023-04-05T22:13:45.789Z,94472.94
2023-04-05T22:15:47.317Z,94468.44
2023-04-05T22:17:48.856Z,94469.25
2023-04-05T22:19:50.533Z,94471.31
2023-04-05T22:21:55.196Z,94465.25
2023-04-05T22:23:56.724Z,94460.19
2023-04-05T22:25:58.294Z,94462.78
2023-04-05T22:28:00.805Z,94453.59
2023-04-05T22:30:03.471Z,94450.53
2023-04-05T22:32:05.251Z,94452.28
2023-04-05T22:34:06.820Z,94457.78
2023-04-05T22:36:09.981Z,94445.59
2023-04-05T22:38:11.651Z,94442.47
2023-04-05T22:40:13.428Z,94441.16
2023-04-05T22:42:14.938Z,94438.13
2023-04-05T22:44:16.483Z,94441.66
2023-04-05T22:46:18.612Z,94433.63
2023-04-05T22:48:20.578Z,94443.50
2023-04-05T22:50:22.326Z,94438.28
2023-04-05T22:52:23.819Z,94429.81
2023-04-05T22:54:25.476Z,94444.81
2023-04-05T22:56:26.979Z,94444.34
2023-04-05T22:58:32.787Z,94428.72
2023-04-05T23:00:34.534Z,94422.22
2023-04-05T23:02:36.087Z,94426.28
2023-04-05T23:04:37.619Z,94428.28
2023-04-05T23:06:39.180Z,94431.91
2023-04-05T23:08:40.809Z,94424.50
2023-04-05T23:10:42.846Z,94424.50
2023-04-05T23:12:44.775Z,94423.25
2023-04-05T23:14:46.410Z,94414.31
2023-04-05T23:16:47.839Z,94404.41
2023-04-05T23:18:49.343Z,94420.91
2023-04-05T23:20:51.286Z,94417.63
2023-04-05T23:22:52.765Z,94415.09
2023-04-05T23:24:54.313Z,94414.56
2023-04-05T23:26:55.954Z,94414.31
2023-04-05T23:28:57.392Z,94414.03
2023-04-05T23:30:58.934Z,94404.28
2023-04-05T23:33:00.678Z,94418.84
2023-04-05T23:35:02.293Z,94411.66
2023-04-05T23:37:03.806Z,94415.72
2023-04-05T23:39:05.396Z,94403.88
2023-04-05T23:41:06.995Z,94411.28
2023-04-05T23:43:08.488Z,94392.84
2023-04-05T23:45:10.660Z,94393.56
2023-04-05T23:47:12.235Z,94393.19
2023-04-05T23:49:13.761Z,94393.69
2023-04-05T23:51:15.581Z,94395.13
2023-04-05T23:53:17.171Z,94397.97
2023-04-05T23:55:18.727Z,94389.91
2023-04-05T23:57:20.522Z,94391.78
2023-04-05T23:59:22.131Z,94391.34
